Time;durP1;ratioP1;P1;durP2;ratioP2;P2;SDS_P1;SDS_P2;PMS_P1;PMS_P2;Temp;Humidity;BMP_temperature;BMP_pressure;BME280_temperature;BME280_humidity;BME280_pressure;Samples;Min_cycle;Max_cycle;Signal;HPM_P1;HPM_P2
2021/05/21 00:01:36;;;;;;;11.57;9.90;;;;;;;10.99;70.69;100559.34;1687690;84;25728;-74
2021/05/21 00:04:03;;;;;;;15.23;10.80;;;;;;;11.01;70.69;100551.13;1626780;85;26516;-73
2021/05/21 00:06:30;;;;;;;13.35;10.70;;;;;;;11.03;70.85;100552.61;1614789;84;27196;-74
2021/05/21 00:08:57;;;;;;;11.50;10.28;;;;;;;11.04;70.79;100550.73;1668292;85;25740;-73
2021/05/21 00:11:24;;;;;;;15.23;11.30;;;;;;;11.04;70.68;100543.53;1688794;84;25781;-74
2021/05/21 00:13:51;;;;;;;15.28;10.85;;;;;;;11.05;70.80;100537.16;1615961;85;26329;-73
2021/05/21 00:16:18;;;;;;;13.20;10.85;;;;;;;11.07;70.73;100536.96;1640167;84;25828;-74
2021/05/21 00:18:51;;;;;;;14.33;11.53;;;;;;;11.07;70.67;100531.60;1671779;84;27521;-74
2021/05/21 00:21:18;;;;;;;11.57;10.20;;;;;;;11.07;70.65;100530.27;1695546;82;25811;-73
2021/05/21 00:23:45;;;;;;;14.00;10.53;;;;;;;11.04;70.44;100530.63;1646048;85;25726;-74
2021/05/21 00:26:13;;;;;;;13.00;10.85;;;;;;;11.02;70.44;100525.47;1641333;84;25707;-74
2021/05/21 00:28:40;;;;;;;12.25;10.80;;;;;;;10.99;70.34;100527.18;1668364;85;25656;-74
2021/05/21 00:31:07;;;;;;;13.72;9.73;;;;;;;10.94;70.23;100524.27;1680855;84;28103;-74
2021/05/21 00:33:34;;;;;;;14.33;11.18;;;;;;;10.87;70.10;100524.70;1636624;84;26375;-74
2021/05/21 00:36:01;;;;;;;15.25;10.48;;;;;;;10.81;70.05;100520.10;1645755;85;25852;-74
2021/05/21 00:38:28;;;;;;;13.98;10.80;;;;;;;10.75;70.12;100524.38;1668589;85;26524;-74
2021/05/21 00:40:55;;;;;;;12.85;10.72;;;;;;;10.72;70.05;100522.06;1686829;84;25758;-74
2021/05/21 00:43:22;;;;;;;12.30;10.35;;;;;;;10.68;70.11;100520.80;1635891;84;27497;-74
2021/05/21 00:45:49;;;;;;;12.65;10.68;;;;;;;10.62;70.05;100518.03;1612418;85;25821;-74
2021/05/21 00:48:16;;;;;;;12.82;11.50;;;;;;;10.57;70.54;100520.44;1683874;84;26329;-74
2021/05/21 00:50:44;;;;;;;13.08;10.75;;;;;;;10.55;70.60;100526.50;1673794;85;26500;-74
2021/05/21 00:53:12;;;;;;;13.50;11.85;;;;;;;10.50;70.44;100519.02;1647175;84;25991;-74
2021/05/21 00:55:39;;;;;;;13.80;10.88;;;;;;;10.49;70.67;100526.75;1647198;85;27431;-74
2021/05/21 00:58:06;;;;;;;15.70;11.38;;;;;;;10.45;70.80;100528.15;1687620;84;25724;-74
2021/05/21 01:00:33;;;;;;;15.13;11.63;;;;;;;10.40;70.79;100533.22;1684674;84;26043;-74
2021/05/21 01:03:00;;;;;;;17.12;11.63;;;;;;;10.38;71.02;100535.77;1639508;85;25729;-74
2021/05/21 01:05:27;;;;;;;14.85;11.43;;;;;;;10.35;71.30;100551.69;1609865;85;25729;-73
2021/05/21 01:07:54;;;;;;;12.47;11.18;;;;;;;10.15;71.26;100536.39;1672049;85;27562;-73
2021/05/21 01:10:22;;;;;;;13.90;11.00;;;;;;;10.05;71.85;100539.33;1687066;84;25957;-74
2021/05/21 01:12:49;;;;;;;11.22;9.90;;;;;;;9.93;72.04;100548.31;1617928;84;25774;-74
2021/05/21 01:15:17;;;;;;;12.78;10.28;;;;;;;9.83;72.44;100533.55;1647270;84;25818;-73
2021/05/21 01:17:44;;;;;;;13.60;11.43;;;;;;;9.76;72.75;100532.61;1688303;84;25687;-74
2021/05/21 01:20:13;;;;;;;12.95;11.38;;;;;;;9.79;72.82;100529.58;1671963;85;28004;-73
2021/05/21 01:22:41;;;;;;;13.50;11.00;;;;;;;9.83;72.93;100526.36;1660782;84;25818;-73
2021/05/21 01:25:09;;;;;;;13.08;11.35;;;;;;;9.85;72.88;100528.34;1641788;84;26265;-74
2021/05/21 01:27:36;;;;;;;14.43;11.18;;;;;;;9.87;73.14;100531.66;1683888;84;25754;-73
2021/05/21 01:30:08;;;;;;;13.08;10.45;;;;;;;9.89;72.94;100534.14;1674048;84;26657;-73
2021/05/21 01:32:35;;;;;;;16.52;11.60;;;;;;;9.90;72.98;100523.78;1673031;84;28103;-73
2021/05/21 01:35:04;;;;;;;14.20;11.30;;;;;;;9.90;72.78;100520.57;1647497;84;26133;-74
2021/05/21 01:37:31;;;;;;;15.30;11.40;;;;;;;9.91;72.92;100520.07;1683662;84;25774;-73
2021/05/21 01:40:00;;;;;;;14.98;12.25;;;;;;;9.89;72.88;100522.10;1666891;85;26363;-74
2021/05/21 01:42:27;;;;;;;13.35;11.08;;;;;;;9.86;72.94;100531.82;1609482;85;25750;-74
2021/05/21 01:44:55;;;;;;;14.05;11.85;;;;;;;9.83;73.17;100525.52;1659166;84;27523;-74
2021/05/21 01:47:22;;;;;;;15.50;12.85;;;;;;;9.82;73.21;100524.68;1641026;85;25688;-74
2021/05/21 01:49:49;;;;;;;16.17;12.73;;;;;;;9.80;73.02;100520.02;1647726;84;26534;-74
2021/05/21 01:52:16;;;;;;;15.98;13.22;;;;;;;9.76;73.10;100514.72;1602458;85;26037;-74
2021/05/21 01:54:43;;;;;;;13.85;12.45;;;;;;;9.72;73.34;100518.78;1662698;84;26439;-74
2021/05/21 01:57:10;;;;;;;16.52;11.73;;;;;;;9.70;73.43;100510.11;1640559;84;27301;-74
2021/05/21 01:59:37;;;;;;;14.87;12.30;;;;;;;9.73;73.62;100511.59;1641714;85;26459;-73
2021/05/21 02:02:06;;;;;;;14.80;11.75;;;;;;;9.72;73.52;100511.25;1655585;85;25802;-74
2021/05/21 02:04:37;;;;;;;14.38;12.00;;;;;;;9.71;73.48;100502.92;1689041;84;26679;-74
2021/05/21 02:07:05;;;;;;;;;;;;;;;9.71;73.49;100499.72;1647939;85;25664;-74
2021/05/21 02:09:58;;;;;;;13.65;10.53;;;;;;;9.72;73.60;100503.23;1625064;86;28111;-74
2021/05/21 02:12:27;;;;;;;15.65;11.78;;;;;;;9.72;73.59;100489.86;1666142;85;25758;-74
2021/05/21 02:14:57;;;;;;;13.15;11.20;;;;;;;9.71;73.53;100489.02;1668583;85;25658;-74
2021/05/21 02:17:26;;;;;;;14.95;11.93;;;;;;;9.69;73.60;100499.57;1616968;85;26508;-74
2021/05/21 02:19:57;;;;;;;13.72;11.63;;;;;;;9.69;73.62;100498.23;1645309;85;25817;-74
2021/05/21 02:22:24;;;;;;;14.03;12.00;;;;;;;9.67;73.48;100497.09;1668418;85;28075;-74
2021/05/21 02:24:57;;;;;;;16.12;11.45;;;;;;;9.65;73.36;100494.27;1663613;85;26394;-73
2021/05/21 02:27:26;;;;;;;16.02;11.68;;;;;;;9.61;73.28;100495.16;1625206;85;25821;-74
2021/05/21 02:29:54;;;;;;;15.18;11.80;;;;;;;9.59;73.30;100500.36;1641798;85;26348;-74
2021/05/21 02:32:21;;;;;;;16.52;11.95;;;;;;;9.54;73.42;100496.89;1630227;85;25683;-75
2021/05/21 02:34:48;;;;;;;15.83;11.28;;;;;;;9.55;73.45;100497.72;1630806;85;28141;-74
2021/05/21 02:37:15;;;;;;;14.40;11.38;;;;;;;9.56;73.65;100500.73;1616894;85;25995;-74
2021/05/21 02:39:42;;;;;;;16.80;12.33;;;;;;;9.58;73.77;100490.69;1620162;85;26402;-74
2021/05/21 02:42:09;;;;;;;13.75;10.55;;;;;;;9.58;73.87;100494.16;1643268;84;25770;-73
2021/05/21 02:44:37;;;;;;;12.20;10.10;;;;;;;9.61;73.99;100496.48;1663176;84;25766;-73
2021/05/21 02:47:05;;;;;;;15.78;11.33;;;;;;;9.63;74.00;100490.45;1640891;84;26759;-74
2021/05/21 02:49:34;;;;;;;14.15;11.73;;;;;;;9.64;74.14;100493.96;1662491;84;25829;-74
2021/05/21 02:52:02;;;;;;;13.35;10.88;;;;;;;9.65;74.15;100494.27;1674292;84;25719;-74
2021/05/21 02:54:29;;;;;;;13.70;10.68;;;;;;;9.66;74.04;100495.45;1688230;84;26564;-74
2021/05/21 02:56:57;;;;;;;13.20;10.80;;;;;;;9.68;74.06;100490.73;1634919;84;25832;-74
2021/05/21 02:59:24;;;;;;;15.08;10.40;;;;;;;9.66;73.99;100489.26;1656756;85;27576;-73
2021/05/21 03:01:51;;;;;;;13.68;11.18;;;;;;;9.62;74.04;100495.49;1655906;84;26152;-74
2021/05/21 03:04:18;;;;;;;13.28;11.28;;;;;;;9.59;74.20;100499.02;1688848;84;25676;-75
2021/05/21 03:06:45;;;;;;;15.20;10.95;;;;;;;9.58;74.46;100486.14;1620741;84;25693;-74
2021/05/21 03:09:12;;;;;;;13.25;11.50;;;;;;;9.55;74.71;100484.35;1619096;85;25704;-74
2021/05/21 03:11:39;;;;;;;15.13;11.57;;;;;;;9.53;74.93;100491.73;1665497;84;27540;-74
2021/05/21 03:14:06;;;;;;;14.53;11.73;;;;;;;9.52;75.36;100494.06;1690236;84;25664;-74
2021/05/21 03:16:33;;;;;;;13.83;11.18;;;;;;;9.54;75.30;100492.07;1643047;84;26423;-74
2021/05/21 03:19:00;;;;;;;22.05;13.13;;;;;;;9.54;75.48;100484.85;1638305;84;25730;-74
2021/05/21 03:21:27;;;;;;;18.82;12.47;;;;;;;9.57;75.61;100487.17;1659800;84;25744;-74
2021/05/21 03:23:54;;;;;;;15.78;12.75;;;;;;;9.61;75.74;100490.30;1685216;84;27591;-74
2021/05/21 03:26:21;;;;;;;17.95;12.63;;;;;;;9.65;75.85;100485.74;1636357;84;26370;-74
2021/05/21 03:28:48;;;;;;;15.03;11.45;;;;;;;9.67;75.83;100491.73;1637515;84;25805;-74
2021/05/21 03:31:15;;;;;;;14.58;11.63;;;;;;;9.72;76.00;100492.03;1671739;85;25792;-74
2021/05/21 03:33:42;;;;;;;14.93;11.22;;;;;;;9.76;76.22;100492.48;1685809;84;25690;-73
2021/05/21 03:36:10;;;;;;;14.80;11.53;;;;;;;9.78;76.14;100493.97;1614593;84;27564;-73
2021/05/21 03:38:38;;;;;;;16.85;12.98;;;;;;;9.84;76.25;100483.02;1616861;85;25885;-74
2021/05/21 03:41:06;;;;;;;13.08;11.70;;;;;;;9.91;76.17;100488.80;1650237;84;25906;-73
2021/05/21 03:43:33;;;;;;;15.38;12.10;;;;;;;9.96;76.13;100480.23;1665939;85;26612;-74
2021/05/21 03:46:00;;;;;;;14.98;12.43;;;;;;;9.99;76.12;100484.69;1657304;85;25817;-74
2021/05/21 03:48:28;;;;;;;14.98;12.55;;;;;;;10.01;76.21;100484.48;1659251;84;27381;-74
2021/05/21 03:50:56;;;;;;;15.48;11.85;;;;;;;10.09;76.39;100485.75;1659736;84;25584;-73
2021/05/21 03:53:23;;;;;;;14.03;12.50;;;;;;;10.21;76.29;100481.61;1686988;83;25402;-74
2021/05/21 03:55:50;;;;;;;14.05;11.53;;;;;;;10.26;76.15;100478.38;1636730;84;26538;-74
2021/05/21 03:58:17;;;;;;;16.67;13.00;;;;;;;10.26;76.03;100479.20;1635970;85;25720;-74
2021/05/21 04:00:44;;;;;;;15.78;12.45;;;;;;;10.28;75.99;100480.35;1647039;84;27460;-74
2021/05/21 04:03:11;;;;;;;18.87;12.58;;;;;;;10.33;76.08;100477.41;1666244;84;25795;-74
2021/05/21 04:05:38;;;;;;;17.48;11.18;;;;;;;10.38;76.03;100484.39;1629111;85;25787;-74
2021/05/21 04:08:05;;;;;;;13.72;11.70;;;;;;;10.39;75.89;100483.35;1641959;83;26299;-74
2021/05/21 04:10:32;;;;;;;16.02;12.15;;;;;;;10.38;75.80;100485.73;1640741;84;25777;-74
2021/05/21 04:13:00;;;;;;;15.63;12.82;;;;;;;10.42;75.74;100484.83;1663286;84;28101;-74
2021/05/21 04:15:27;;;;;;;14.33;11.40;;;;;;;10.44;75.64;100489.48;1681411;84;25903;-74
2021/05/21 04:17:54;;;;;;;19.02;12.03;;;;;;;10.47;75.74;100491.30;1635082;85;26008;-74
2021/05/21 04:20:21;;;;;;;16.23;11.75;;;;;;;10.47;75.81;100491.80;1683663;84;26500;-74
2021/05/21 04:22:48;;;;;;;17.95;12.15;;;;;;;10.47;75.83;100495.81;1683958;83;25964;-74
2021/05/21 04:25:15;;;;;;;16.97;12.28;;;;;;;10.50;75.92;100492.77;1577346;85;28069;-73
2021/05/21 04:27:42;;;;;;;16.42;12.78;;;;;;;10.52;75.74;100498.23;1636590;85;25737;-74
2021/05/21 04:30:10;;;;;;;16.10;12.18;;;;;;;10.54;75.61;100503.42;1685540;84;26381;-73
2021/05/21 04:32:37;;;;;;;17.55;12.80;;;;;;;10.55;75.81;100495.70;1689329;84;26613;-74
2021/05/21 04:35:07;;;;;;;16.15;12.58;;;;;;;10.54;75.64;100489.50;1644799;85;25806;-74
2021/05/21 04:37:34;;;;;;;15.73;10.50;;;;;;;10.56;75.54;100492.02;1643567;85;27494;-74
2021/05/21 04:40:01;;;;;;;16.40;12.15;;;;;;;10.56;75.55;100490.14;1641944;85;25792;-73
2021/05/21 04:42:28;;;;;;;21.02;12.43;;;;;;;10.56;75.50;100486.66;1682500;84;25778;-73
2021/05/21 04:44:55;;;;;;;16.85;12.50;;;;;;;10.58;75.51;100485.45;1615071;85;25828;-74
2021/05/21 04:47:22;;;;;;;16.40;12.60;;;;;;;10.62;75.59;100484.55;1647604;84;26550;-74
2021/05/21 04:49:49;;;;;;;15.25;12.15;;;;;;;10.68;75.63;100485.13;1672943;85;27447;-74
2021/05/21 04:52:16;;;;;;;16.77;11.90;;;;;;;10.76;75.60;100486.34;1656677;85;25890;-74
2021/05/21 04:54:43;;;;;;;18.27;12.30;;;;;;;10.80;75.44;100485.77;1638115;84;26035;-74
2021/05/21 04:57:10;;;;;;;17.57;12.40;;;;;;;10.87;75.46;100485.84;1648464;85;25925;-73
2021/05/21 04:59:37;;;;;;;15.68;10.85;;;;;;;10.99;75.55;100488.31;1688310;84;26062;-74
2021/05/21 05:02:04;;;;;;;13.55;11.93;;;;;;;11.08;75.27;100483.15;1696540;83;27410;-73
2021/05/21 05:04:32;;;;;;;17.25;12.63;;;;;;;11.18;75.06;100489.54;1677451;83;26274;-74
2021/05/21 05:06:59;;;;;;;14.15;11.73;;;;;;;11.24;74.71;100485.58;1659049;84;25700;-74
2021/05/21 05:09:26;;;;;;;15.93;11.70;;;;;;;11.35;74.72;100480.19;1669111;85;26487;-74
2021/05/21 05:11:54;;;;;;;16.23;11.28;;;;;;;11.44;74.68;100483.86;1658176;84;26582;-74
2021/05/21 05:14:21;;;;;;;13.28;11.10;;;;;;;11.55;74.27;100481.98;1660474;84;27498;-74
2021/05/21 05:16:48;;;;;;;12.93;10.20;;;;;;;11.66;74.36;100481.95;1643681;84;25758;-74
2021/05/21 05:19:15;;;;;;;12.15;9.83;;;;;;;11.78;73.86;100480.94;1683049;84;26376;-74
2021/05/21 05:21:44;;;;;;;15.58;10.40;;;;;;;11.88;73.52;100481.41;1621373;85;26445;-74
2021/05/21 05:24:18;;;;;;;13.72;10.43;;;;;;;11.95;73.84;100484.45;1650535;85;25454;-74
2021/05/21 05:26:46;;;;;;;12.65;10.25;;;;;;;12.01;73.43;100477.45;1647669;85;27278;-74
2021/05/21 05:29:14;;;;;;;11.68;9.58;;;;;;;12.11;73.62;100474.72;1688898;84;25701;-74
2021/05/21 05:31:46;;;;;;;11.48;9.80;;;;;;;12.24;73.32;100479.31;1627472;85;25766;-74
2021/05/21 05:34:14;;;;;;;11.95;9.63;;;;;;;12.38;73.48;100486.41;1661423;84;26415;-74
2021/05/21 05:36:41;;;;;;;10.85;9.15;;;;;;;12.49;73.41;100481.77;1626434;85;25777;-74
2021/05/21 05:39:09;;;;;;;13.50;9.20;;;;;;;12.56;73.05;100475.91;1684619;84;27028;-74
2021/05/21 05:41:36;;;;;;;10.88;9.08;;;;;;;12.68;72.56;100482.88;1659798;85;25878;-73
2021/05/21 05:44:04;;;;;;;12.68;8.98;;;;;;;12.73;72.09;100477.20;1651486;84;25706;-74
2021/05/21 05:46:31;;;;;;;14.20;9.78;;;;;;;12.79;72.46;100477.72;1659377;84;26305;-74
2021/05/21 05:48:58;;;;;;;12.15;9.15;;;;;;;12.85;71.67;100473.41;1682791;84;25282;-74
2021/05/21 05:51:25;;;;;;;9.78;8.38;;;;;;;12.90;71.81;100473.60;1622337;85;27363;-73
2021/05/21 05:53:52;;;;;;;13.10;9.63;;;;;;;12.97;71.58;100470.41;1610178;83;25812;-74
2021/05/21 05:56:19;;;;;;;13.65;8.58;;;;;;;13.03;71.76;100470.42;1620027;85;25751;-74
2021/05/21 05:58:46;;;;;;;15.18;9.28;;;;;;;13.06;71.28;100463.33;1679223;84;25752;-74
2021/05/21 06:01:13;;;;;;;11.20;9.23;;;;;;;13.11;71.05;100465.38;1648763;84;25753;-75
2021/05/21 06:03:40;;;;;;;13.18;8.80;;;;;;;13.14;70.51;100456.91;1678912;83;27415;-75
2021/05/21 06:06:07;;;;;;;13.40;8.25;;;;;;;13.19;70.58;100461.16;1622821;85;26070;-75
2021/05/21 06:08:34;;;;;;;11.28;8.58;;;;;;;13.29;70.86;100458.04;1660655;84;26260;-75
2021/05/21 06:11:01;;;;;;;11.65;8.13;;;;;;;13.36;70.44;100457.53;1643171;84;26238;-75
2021/05/21 06:13:28;;;;;;;10.03;7.85;;;;;;;13.45;70.75;100457.09;1641964;84;25662;-74
2021/05/21 06:15:55;;;;;;;10.70;8.15;;;;;;;13.52;70.95;100451.19;1636405;84;27445;-75
2021/05/21 06:18:22;;;;;;;11.30;8.40;;;;;;;13.65;70.17;100449.83;1654444;84;25687;-75
2021/05/21 06:20:49;;;;;;;11.43;8.63;;;;;;;13.75;70.21;100448.86;1627728;84;25746;-74
2021/05/21 06:23:16;;;;;;;8.40;7.45;;;;;;;13.88;70.39;100443.45;1638725;84;25769;-75
2021/05/21 06:28:15;;;;;;;9.33;8.33;;;;;;;14.05;69.04;100445.69;1689869;84;27405;-74
2021/05/21 06:30:42;;;;;;;10.03;8.30;;;;;;;14.10;69.09;100444.00;1644609;84;26291;-73
2021/05/21 06:33:09;;;;;;;9.08;7.53;;;;;;;14.20;68.78;100444.36;1658823;84;25723;-74
2021/05/21 06:35:36;;;;;;;11.20;7.95;;;;;;;14.33;68.76;100442.16;1645051;84;25955;-74
2021/05/21 06:38:03;;;;;;;8.25;7.35;;;;;;;14.47;68.98;100441.06;1688264;84;25919;-73
2021/05/21 06:40:31;;;;;;;7.72;6.53;;;;;;;14.62;68.43;100433.52;1625886;83;27406;-73
2021/05/21 06:42:58;;;;;;;8.75;7.12;;;;;;;14.77;67.92;100439.44;1646517;83;25661;-74
2021/05/21 06:45:26;;;;;;;8.20;7.00;;;;;;;14.82;65.58;100435.54;1647668;85;25335;-74
2021/05/21 06:47:53;;;;;;;12.50;7.67;;;;;;;14.81;66.37;100433.07;1682648;82;25786;-74
2021/05/21 06:50:20;;;;;;;7.47;5.62;;;;;;;14.87;66.52;100426.80;1645938;84;26271;-74
2021/05/21 06:52:47;;;;;;;8.03;6.33;;;;;;;14.99;64.96;100429.91;1648610;85;27629;-75
2021/05/21 06:55:14;;;;;;;12.65;6.97;;;;;;;15.05;65.73;100426.37;1643176;85;26108;-74
2021/05/21 06:57:41;;;;;;;8.38;7.37;;;;;;;15.18;66.09;100426.23;1697979;83;25643;-75
2021/05/21 07:00:10;;;;;;;9.60;7.25;;;;;;;15.27;65.41;100414.12;1658458;85;25859;-73
2021/05/21 07:02:37;;;;;;;9.53;6.45;;;;;;;15.37;64.73;100417.67;1653209;85;26489;-74
2021/05/21 07:05:06;;;;;;;8.18;5.15;;;;;;;15.50;65.13;100416.75;1655151;85;27495;-74
2021/05/21 07:07:33;;;;;;;6.33;5.22;;;;;;;15.58;62.20;100406.48;1684741;84;25559;-75
2021/05/21 07:10:00;;;;;;;6.83;5.62;;;;;;;15.63;63.92;100405.82;1631836;84;26315;-74
2021/05/21 07:12:28;;;;;;;11.95;7.05;;;;;;;15.70;63.17;100404.69;1674252;82;26391;-75
2021/05/21 07:14:55;;;;;;;7.80;6.67;;;;;;;15.73;63.86;100400.71;1645785;83;25733;-74
2021/05/21 07:17:22;;;;;;;7.95;6.40;;;;;;;15.83;63.36;100401.00;1659579;82;27569;-75
2021/05/21 07:19:49;;;;;;;7.03;5.37;;;;;;;15.92;63.21;100394.25;1628206;83;26521;-74
2021/05/21 07:22:16;;;;;;;7.37;5.92;;;;;;;16.00;62.85;100396.64;1643786;85;26382;-75
2021/05/21 07:24:43;;;;;;;6.40;5.50;;;;;;;16.03;61.86;100392.15;1623979;85;26480;-73
2021/05/21 07:27:10;;;;;;;7.30;5.05;;;;;;;16.01;61.67;100388.33;1654451;83;25688;-74
2021/05/21 07:29:37;;;;;;;6.30;4.70;;;;;;;16.07;61.78;100394.69;1620225;84;27430;-74
2021/05/21 07:32:05;;;;;;;5.83;4.70;;;;;;;16.14;61.11;100385.98;1635280;85;26455;-74
2021/05/21 07:34:32;;;;;;;8.00;5.15;;;;;;;16.25;61.94;100386.56;1643086;83;26450;-74
2021/05/21 07:36:59;;;;;;;6.40;5.50;;;;;;;16.36;60.17;100384.41;1685471;84;25934;-73
2021/05/21 07:39:26;;;;;;;7.05;5.42;;;;;;;16.35;60.28;100380.08;1633284;84;25661;-74
2021/05/21 07:41:55;;;;;;;4.03;3.70;;;;;;;16.41;60.53;100377.80;1656625;84;27518;-75
2021/05/21 07:44:22;;;;;;;4.47;3.83;;;;;;;16.50;59.30;100365.64;1632097;83;25836;-74
2021/05/21 07:46:50;;;;;;;5.25;3.75;;;;;;;16.58;59.35;100376.64;1649741;84;25465;-74
2021/05/21 07:49:22;;;;;;;6.30;4.10;;;;;;;16.67;58.73;100369.33;1639965;84;25943;-74
2021/05/21 07:51:47;;;;;;;4.40;3.35;;;;;;;16.74;57.82;100370.03;1681397;83;26382;-73
2021/05/21 07:54:15;;;;;;;3.77;2.77;;;;;;;16.74;55.51;100372.73;1646309;82;27486;-74
2021/05/21 07:56:42;;;;;;;3.33;2.33;;;;;;;16.64;55.38;100373.02;1697972;82;25612;-74
2021/05/21 07:59:11;;;;;;;2.30;2.10;;;;;;;16.68;56.50;100368.27;1645288;83;25705;-73
2021/05/21 08:01:40;;;;;;;3.37;2.30;;;;;;;16.72;55.14;100369.44;1679749;83;25770;-74
2021/05/21 08:04:08;;;;;;;4.03;2.20;;;;;;;16.80;55.52;100352.90;1635993;84;25668;-74
2021/05/21 08:06:35;;;;;;;3.33;2.08;;;;;;;16.90;55.94;100357.20;1684249;84;28143;-75
2021/05/21 08:09:05;;;;;;;2.83;2.00;;;;;;;16.97;55.49;100353.03;1640056;84;25776;-74
2021/05/21 08:11:33;;;;;;;2.37;1.90;;;;;;;16.98;53.88;100355.21;1629220;85;25763;-74
2021/05/21 08:14:00;;;;;;;5.70;2.20;;;;;;;16.98;53.41;100358.20;1654976;84;26726;-73
2021/05/21 08:16:30;;;;;;;2.35;1.80;;;;;;;17.00;52.90;100346.33;1663074;84;25791;-73
2021/05/21 08:18:58;;;;;;;5.72;2.27;;;;;;;17.10;53.48;100346.56;1653437;85;27969;-74
2021/05/21 08:21:27;;;;;;;3.70;1.80;;;;;;;17.24;53.53;100346.60;1655491;84;25696;-74
2021/05/21 08:23:55;;;;;;;3.40;1.40;;;;;;;17.38;51.93;100348.86;1639816;85;25769;-73
2021/05/21 08:26:25;;;;;;;2.85;1.92;;;;;;;17.53;52.78;100348.39;1685754;84;25932;-73
2021/05/21 08:28:53;;;;;;;2.25;1.60;;;;;;;17.53;51.44;100345.69;1636627;84;25980;-73
2021/05/21 08:31:21;;;;;;;4.95;1.80;;;;;;;17.43;51.70;100345.41;1658638;84;27484;-74
2021/05/21 08:33:49;;;;;;;6.50;1.82;;;;;;;17.41;50.81;100335.34;1623143;85;25740;-75
2021/05/21 08:36:16;;;;;;;2.22;1.40;;;;;;;17.35;49.40;100339.02;1689047;84;25846;-74
2021/05/21 08:38:47;;;;;;;3.65;1.60;;;;;;;17.30;49.01;100338.36;1644128;84;25906;-74
2021/05/21 08:41:23;;;;;;;4.58;1.45;;;;;;;17.27;49.87;100334.80;1659984;84;25905;-75
2021/05/21 08:43:52;;;;;;;9.58;1.75;;;;;;;17.44;50.35;100324.89;1682851;84;28006;-74
2021/05/21 08:46:22;;;;;;;1.87;1.47;;;;;;;17.69;50.57;100329.51;1616375;84;25826;-74
2021/05/21 08:48:49;;;;;;;2.95;1.12;;;;;;;17.88;50.62;100326.65;1653203;83;25747;-74
2021/05/21 08:51:18;;;;;;;5.25;1.12;;;;;;;17.93;47.84;100324.02;1644909;85;25788;-74
2021/05/21 08:53:45;;;;;;;1.60;1.30;;;;;;;17.78;46.10;100323.19;1673843;83;25574;-75
2021/05/21 08:56:12;;;;;;;1.85;1.20;;;;;;;17.58;46.67;100319.52;1620840;85;27433;-75
2021/05/21 08:58:43;;;;;;;2.75;1.22;;;;;;;17.50;46.02;100316.36;1657308;83;26514;-74
2021/05/21 09:01:08;;;;;;;1.30;1.20;;;;;;;17.36;46.13;100319.84;1684515;84;25695;-74
2021/05/21 09:03:35;;;;;;;1.50;1.05;;;;;;;17.32;47.40;100316.49;1659556;83;25766;-74
2021/05/21 09:06:17;;;;;;;3.33;1.20;;;;;;;17.46;47.71;100313.28;1636236;84;25749;-75
2021/05/21 09:08:51;;;;;;;2.85;1.00;;;;;;;17.71;47.42;100306.23;1648541;85;27623;-74
2021/05/21 09:11:33;;;;;;;1.65;1.10;;;;;;;17.90;47.17;100303.64;1667054;85;25799;-75
2021/05/21 09:14:09;;;;;;;1.82;1.20;;;;;;;17.98;47.27;100295.14;1646926;85;25768;-74
2021/05/21 09:16:39;;;;;;;2.60;1.00;;;;;;;17.91;46.51;100299.05;1663164;84;25671;-74
2021/05/21 09:19:19;;;;;;;1.30;1.20;;;;;;;17.97;45.97;100295.36;1635780;85;26307;-74
2021/05/21 09:22:06;;;;;;;2.47;1.30;;;;;;;18.09;47.10;100290.73;1680359;84;27546;-74
2021/05/21 09:24:41;;;;;;;1.37;1.15;;;;;;;18.22;46.31;100289.08;1673778;85;25552;-75
2021/05/21 09:27:11;;;;;;;2.58;1.72;;;;;;;18.34;46.55;100285.77;1646862;85;26423;-73
2021/05/21 09:29:50;;;;;;;5.33;1.60;;;;;;;18.42;45.67;100285.35;1645029;85;26434;-74
2021/05/21 09:32:29;;;;;;;1.80;1.40;;;;;;;18.42;45.08;100276.69;1675397;84;25767;-75
2021/05/21 09:35:22;;;;;;;2.37;1.72;;;;;;;18.40;44.92;100270.69;1681178;84;27412;-73
2021/05/21 09:37:48;;;;;;;4.78;1.62;;;;;;;18.48;45.89;100276.81;1635902;85;25685;-75
2021/05/21 09:40:19;;;;;;;5.40;1.40;;;;;;;18.53;45.68;100269.58;1681779;84;25727;-74
2021/05/21 09:43:01;;;;;;;3.67;1.40;;;;;;;18.63;46.15;100266.19;1659744;84;26331;-74
2021/05/21 09:45:37;;;;;;;1.95;1.25;;;;;;;18.77;46.71;100272.41;1671891;85;25742;-73
2021/05/21 09:48:08;;;;;;;1.87;1.22;;;;;;;18.97;46.41;100267.80;1643107;84;27494;-74
2021/05/21 09:50:39;;;;;;;1.52;1.42;;;;;;;19.11;45.47;100269.11;1680680;84;25799;-74
2021/05/21 09:53:14;;;;;;;2.65;1.35;;;;;;;19.22;44.22;100270.34;1650378;85;25789;-77
2021/05/21 09:55:45;;;;;;;8.45;3.70;;;;;;;19.35;43.69;100265.66;1684519;84;26078;-77
2021/05/21 09:58:24;;;;;;;;;;;;;;;19.39;44.04;100264.08;1667033;83;25748;-76
2021/05/21 10:01:20;;;;;;;2.70;1.50;;;;;;;19.29;43.81;100264.72;1601804;85;27341;-77
2021/05/21 10:03:55;;;;;;;2.70;1.80;;;;;;;19.18;43.44;100258.90;1667886;85;25707;-77
2021/05/21 10:06:24;;;;;;;3.90;2.30;;;;;;;19.19;44.55;100259.16;1692233;83;25668;-77
2021/05/21 10:08:55;;;;;;;3.40;1.80;;;;;;;19.25;43.21;100250.01;1642515;85;25802;-76
2021/05/21 10:11:21;;;;;;;2.08;1.60;;;;;;;19.33;42.34;100250.13;1674427;83;25758;-76
2021/05/21 10:13:48;;;;;;;2.15;1.12;;;;;;;19.37;43.88;100249.41;1675968;83;27456;-76
2021/05/21 10:16:20;;;;;;;2.20;1.42;;;;;;;19.42;42.40;100248.09;1682072;84;25704;-76
2021/05/21 10:18:50;;;;;;;2.77;1.20;;;;;;;19.33;44.12;100248.23;1622088;85;26559;-75
2021/05/21 10:21:19;;;;;;;2.45;1.20;;;;;;;19.35;43.96;100241.22;1662033;84;26452;-76
2021/05/21 10:24:02;;;;;;;3.67;2.20;;;;;;;19.31;44.20;100241.41;1684900;84;25236;-76
2021/05/21 10:26:33;;;;;;;3.75;1.72;;;;;;;19.28;43.87;100229.15;1637535;84;27356;-76
2021/05/21 10:29:08;;;;;;;2.22;1.30;;;;;;;19.39;43.17;100221.98;1644271;84;25787;-76
2021/05/21 10:31:38;;;;;;;5.95;2.08;;;;;;;19.50;42.39;100212.35;1647273;85;26512;-76
2021/05/21 10:34:19;;;;;;;2.40;1.63;;;;;;;19.62;43.02;100216.27;1686198;84;27364;-77
2021/05/21 10:37:29;;;;;;;3.27;1.90;;;;;;;19.71;43.80;100216.11;1670166;85;25598;-76
2021/05/21 10:40:24;;;;;;;2.25;1.60;;;;;;;19.69;42.89;100210.11;1650113;84;27382;-77
2021/05/21 10:43:17;;;;;;;3.02;1.90;;;;;;;19.63;42.50;100198.91;1665044;84;25634;-75
2021/05/21 10:45:56;;;;;;;3.15;2.05;;;;;;;19.67;43.76;100202.75;1665990;85;25867;-76
2021/05/21 10:48:27;;;;;;;2.83;1.60;;;;;;;19.77;42.41;100193.33;1664997;84;26467;-77
2021/05/21 10:51:10;;;;;;;2.85;1.57;;;;;;;19.82;42.63;100188.76;1639593;83;25933;-76
2021/05/21 10:53:42;;;;;;;1.25;1.15;;;;;;;19.87;43.91;100186.63;1637129;84;27477;-76
2021/05/21 10:56:10;;;;;;;2.58;1.60;;;;;;;20.01;43.93;100175.63;1660808;85;25696;-76
2021/05/21 10:58:45;;;;;;;5.47;1.82;;;;;;;20.13;44.02;100180.88;1676139;83;25712;-75
2021/05/21 11:01:25;;;;;;;6.30;3.02;;;;;;;20.24;43.40;100176.67;1627970;84;25889;-77
2021/05/21 11:04:02;;;;;;;3.15;2.10;;;;;;;20.35;43.17;100166.69;1655187;85;26191;-78
2021/05/21 11:06:46;;;;;;;3.77;2.40;;;;;;;20.41;41.21;100161.56;1669767;84;28069;-79
2021/05/21 11:09:22;;;;;;;2.62;1.77;;;;;;;20.44;42.00;100153.72;1673593;84;25748;-82
2021/05/21 11:11:59;;;;;;;4.90;3.40;;;;;;;20.48;42.49;100156.19;1635069;84;25839;-78
2021/05/21 11:14:34;;;;;;;3.37;2.17;;;;;;;20.48;40.15;100154.00;1695786;83;25797;-74
2021/05/21 11:17:26;;;;;;;2.33;1.67;;;;;;;20.38;41.71;100147.14;1686926;84;25678;-74
2021/05/21 11:20:00;;;;;;;2.87;2.58;;;;;;;20.43;42.74;100148.52;1659434;85;27349;-75
2021/05/21 11:22:37;;;;;;;7.53;2.42;;;;;;;20.61;41.44;100139.94;1682726;84;26150;-74
2021/05/21 11:25:15;;;;;;;6.00;2.58;;;;;;;20.67;42.78;100145.68;1639342;84;25740;-74
2021/05/21 11:27:43;;;;;;;3.10;2.05;;;;;;;20.83;41.76;100135.70;1668192;85;25807;-76
2021/05/21 11:30:19;;;;;;;4.80;2.33;;;;;;;20.90;39.95;100134.90;1658233;84;26520;-78
2021/05/21 11:32:45;;;;;;;2.62;1.87;;;;;;;20.85;39.41;100135.69;1629966;85;28533;-77